Time;durP1;ratioP1;P1;durP2;ratioP2;P2;SDS_P1;SDS_P2;PMS_P1;PMS_P2;Temp;Humidity;BMP_temperature;BMP_pressure;BME280_temperature;BME280_humidity;BME280_pressure;Samples;Min_cycle;Max_cycle;Signal;HPM_P1;HPM_P2
2022/03/13 04:02:14;;;;;;;22.40;17.37;;;-1.00;99.90;;;;;;5138083;23;20284;-73
2022/03/13 04:04:41;;;;;;;21.27;18.13;;;-1.00;99.90;;;;;;4974479;28;20184;-73
2022/03/13 04:07:07;;;;;;;20.00;16.03;;;-1.10;99.90;;;;;;4974017;28;20185;-76
2022/03/13 04:09:32;;;;;;;20.07;15.37;;;-1.00;99.90;;;;;;4974312;28;20739;-73
2022/03/13 04:11:58;;;;;;;25.37;16.83;;;-1.00;99.90;;;;;;4960104;28;20625;-76
2022/03/13 04:14:25;;;;;;;24.67;15.67;;;-1.00;99.90;;;;;;4953848;29;20433;-73
2022/03/13 04:16:52;;;;;;;22.07;16.13;;;-1.00;99.90;;;;;;4961626;23;20702;-75
2022/03/13 04:19:19;;;;;;;20.67;16.13;;;-1.00;99.90;;;;;;4932246;29;20182;-72
2022/03/13 04:21:46;;;;;;;19.73;15.60;;;-1.00;99.90;;;;;;4928642;29;20183;-72
2022/03/13 04:24:12;;;;;;;25.03;17.47;;;-1.00;99.90;;;;;;4935089;29;20741;-72
2022/03/13 04:26:42;;;;;;;20.03;17.77;;;-1.10;99.90;;;;;;4934621;29;20203;-72
2022/03/13 04:29:10;;;;;;;26.40;17.30;;;-1.20;99.90;;;;;;4935455;29;20274;-72
2022/03/13 04:31:37;;;;;;;26.13;17.73;;;-1.30;99.90;;;;;;4935491;29;20178;-72
2022/03/13 04:34:04;;;;;;;23.77;18.07;;;-1.30;99.90;;;;;;4935627;29;20210;-72
2022/03/13 04:36:33;;;;;;;23.33;18.70;;;-1.40;99.90;;;;;;4935642;29;20574;-72
2022/03/13 04:39:03;;;;;;;23.00;17.87;;;-1.40;99.90;;;;;;4939702;29;20189;-72
2022/03/13 04:41:29;;;;;;;23.67;16.67;;;-1.30;99.90;;;;;;4946836;29;20183;-73
2022/03/13 04:43:55;;;;;;;26.37;17.33;;;-1.30;99.90;;;;;;4936938;29;20182;-73
2022/03/13 04:46:21;;;;;;;24.53;17.63;;;-1.30;99.90;;;;;;4933866;29;20213;-73
2022/03/13 04:48:48;;;;;;;22.03;17.53;;;-1.30;99.90;;;;;;4933375;29;20762;-73
2022/03/13 04:51:13;;;;;;;25.77;16.77;;;-1.20;99.90;;;;;;4935330;29;20666;-73
2022/03/13 04:53:40;;;;;;;22.23;15.57;;;-1.20;99.90;;;;;;4934957;29;20249;-73
2022/03/13 04:56:06;;;;;;;20.00;16.07;;;-1.20;99.90;;;;;;4935097;29;20202;-73
2022/03/13 04:58:32;;;;;;;21.27;15.60;;;-1.30;99.90;;;;;;4934133;29;20183;-73
2022/03/13 05:00:58;;;;;;;24.07;19.17;;;-1.30;99.90;;;;;;4933669;29;20206;-73
2022/03/13 05:03:24;;;;;;;18.93;15.03;;;-1.30;99.90;;;;;;4935015;29;20189;-73
2022/03/13 05:05:50;;;;;;;24.63;15.93;;;-1.30;99.90;;;;;;4934810;29;20686;-73
2022/03/13 05:08:16;;;;;;;22.17;16.50;;;-1.20;99.90;;;;;;4932984;29;20183;-73
2022/03/13 05:10:44;;;;;;;20.00;15.23;;;-1.10;99.90;;;;;;4934990;29;20558;-73
2022/03/13 05:13:14;;;;;;;20.73;15.60;;;-1.30;99.90;;;;;;4934550;29;20301;-73
2022/03/13 05:15:42;;;;;;;20.70;14.70;;;-1.30;99.90;;;;;;4934643;29;20179;-73
2022/03/13 05:18:09;;;;;;;23.67;15.03;;;-1.40;99.90;;;;;;4932594;29;20269;-72
2022/03/13 05:20:35;;;;;;;18.17;14.13;;;-1.40;99.90;;;;;;4935934;29;20182;-73
2022/03/13 05:23:06;;;;;;;23.67;14.10;;;-1.40;99.90;;;;;;4934993;29;20189;-73
2022/03/13 05:25:32;;;;;;;20.80;15.87;;;-1.50;99.90;;;;;;4934606;29;20186;-72
2022/03/13 05:28:02;;;;;;;21.00;15.00;;;-1.60;99.90;;;;;;4933718;29;20230;-72
2022/03/13 05:30:28;;;;;;;22.23;15.50;;;-1.70;99.90;;;;;;4934390;29;20209;-72
2022/03/13 05:32:55;;;;;;;26.07;22.53;;;-1.70;99.90;;;;;;4932601;29;20201;-73
2022/03/13 05:35:21;;;;;;;20.93;14.87;;;-1.50;99.90;;;;;;4934536;29;20187;-73
2022/03/13 05:37:47;;;;;;;23.27;15.83;;;-1.50;99.90;;;;;;4929423;29;20307;-73
2022/03/13 05:40:15;;;;;;;19.57;14.87;;;-1.50;99.90;;;;;;4927466;29;20658;-73
2022/03/13 05:42:43;;;;;;;18.60;14.77;;;-1.40;99.90;;;;;;4932826;29;20182;-74
2022/03/13 05:45:14;;;;;;;20.70;15.30;;;-1.50;99.90;;;;;;4933994;29;20696;-74
2022/03/13 05:47:51;;;;;;;20.47;14.67;;;-1.50;99.90;;;;;;4931551;29;20208;-74
2022/03/13 05:50:19;;;;;;;19.80;15.77;;;-1.40;99.90;;;;;;4934024;29;20292;-73
2022/03/13 05:52:45;;;;;;;18.43;15.47;;;-1.40;99.90;;;;;;4933493;29;20262;-74
2022/03/13 05:55:12;;;;;;;21.47;14.93;;;-1.40;99.90;;;;;;4934010;29;20190;-73
2022/03/13 05:57:38;;;;;;;21.00;16.20;;;-1.40;99.90;;;;;;4932753;29;20206;-73
2022/03/13 06:00:07;;;;;;;20.37;16.73;;;-1.40;99.90;;;;;;4933764;29;20178;-73
2022/03/13 06:02:32;;;;;;;22.40;16.70;;;-1.40;99.90;;;;;;4933195;29;20186;-72
2022/03/13 06:04:58;;;;;;;27.47;17.60;;;-1.30;99.90;;;;;;4933868;29;20194;-74
2022/03/13 06:07:24;;;;;;;20.67;16.13;;;-1.20;99.90;;;;;;4933391;29;20214;-73
2022/03/13 06:09:52;;;;;;;23.90;16.67;;;-1.20;99.90;;;;;;4933960;29;20277;-74
2022/03/13 06:12:18;;;;;;;24.80;18.13;;;-1.00;99.90;;;;;;4933698;29;20193;-74
2022/03/13 06:14:44;;;;;;;22.57;17.23;;;-1.00;99.90;;;;;;4933871;29;20252;-73
2022/03/13 06:17:10;;;;;;;29.57;17.83;;;-0.90;99.90;;;;;;4933041;29;20213;-73
2022/03/13 06:19:39;;;;;;;41.13;37.10;;;-0.80;99.90;;;;;;4933565;29;20205;-73
2022/03/13 06:22:06;;;;;;;23.10;20.70;;;-0.70;99.90;;;;;;4929544;29;21079;-75
2022/03/13 06:24:32;;;;;;;24.00;19.63;;;-0.70;99.90;;;;;;4924547;29;20222;-74
2022/03/13 06:26:58;;;;;;;22.30;19.10;;;-0.60;99.90;;;;;;4932982;29;20560;-74
2022/03/13 06:29:24;;;;;;;20.10;14.93;;;-0.50;99.90;;;;;;4920163;29;20190;-74
2022/03/13 06:31:52;;;;;;;23.37;15.53;;;-0.30;99.90;;;;;;4915578;29;20191;-72
2022/03/13 06:34:18;;;;;;;17.97;15.20;;;-0.20;99.90;;;;;;4914511;29;20210;-73
2022/03/13 06:36:46;;;;;;;15.50;13.80;;;-0.10;99.90;;;;;;4914015;29;20230;-73
2022/03/13 06:39:12;;;;;;;16.47;13.40;;;-0.10;99.90;;;;;;4913286;29;20175;-73
2022/03/13 06:41:38;;;;;;;27.30;25.03;;;0.10;99.90;;;;;;4925704;29;20190;-73
2022/03/13 06:44:05;;;;;;;20.17;18.30;;;0.20;99.90;;;;;;4933125;29;20182;-74
2022/03/13 06:46:32;;;;;;;14.90;12.80;;;0.30;99.90;;;;;;4933251;29;20270;-73
2022/03/13 06:48:59;;;;;;;17.93;14.40;;;0.40;99.90;;;;;;4932863;29;20192;-73
2022/03/13 06:51:25;;;;;;;16.53;13.23;;;0.50;99.90;;;;;;4932349;29;20741;-74
2022/03/13 06:53:51;;;;;;;16.93;13.93;;;0.60;99.90;;;;;;4933684;29;20252;-74
2022/03/13 06:56:18;;;;;;;13.97;12.57;;;0.70;99.90;;;;;;4933246;29;20241;-74
2022/03/13 06:58:43;;;;;;;14.47;12.97;;;0.90;99.90;;;;;;4934123;29;20649;-70
2022/03/13 07:01:10;;;;;;;16.23;13.87;;;1.10;99.90;;;;;;4935603;29;20178;-70
2022/03/13 07:03:37;;;;;;;18.70;16.70;;;1.60;99.90;;;;;;4936447;29;20209;-70
2022/03/13 07:06:04;;;;;;;18.57;14.90;;;2.40;99.90;;;;;;4943108;29;20203;-70
2022/03/13 07:08:32;;;;;;;15.77;12.97;;;3.10;99.90;;;;;;4946204;29;20186;-70
2022/03/13 07:11:02;;;;;;;14.20;12.50;;;3.80;99.90;;;;;;4937632;29;20194;-70
2022/03/13 07:13:32;;;;;;;14.40;13.03;;;4.50;99.90;;;;;;4938887;29;20214;-70
2022/03/13 07:16:00;;;;;;;16.90;12.83;;;5.20;99.90;;;;;;4935553;29;20221;-71
2022/03/13 07:18:27;;;;;;;15.27;13.30;;;5.60;99.90;;;;;;4921242;29;20286;-71
2022/03/13 07:20:53;;;;;;;16.27;14.77;;;6.10;99.90;;;;;;4917749;29;20183;-71
2022/03/13 07:23:19;;;;;;;14.03;12.67;;;6.50;98.80;;;;;;4916053;29;20282;-71
2022/03/13 07:25:45;;;;;;;14.20;12.77;;;7.00;96.00;;;;;;4917644;29;20308;-71
2022/03/13 07:28:11;;;;;;;13.73;12.43;;;7.10;92.60;;;;;;4916744;29;20210;-71
2022/03/13 07:30:37;;;;;;;15.70;13.00;;;7.20;91.70;;;;;;4916637;29;20273;-71
2022/03/13 07:33:02;;;;;;;13.60;12.20;;;7.30;90.50;;;;;;4917864;29;20187;-70
2022/03/13 07:35:28;;;;;;;14.33;12.77;;;7.30;90.30;;;;;;4916624;29;20191;-71
2022/03/13 07:37:54;;;;;;;14.33;12.83;;;7.20;89.00;;;;;;4915942;29;20239;-71
2022/03/13 07:40:20;;;;;;;13.20;11.90;;;7.30;88.60;;;;;;4917528;29;20257;-71
2022/03/13 07:42:45;;;;;;;15.30;13.53;;;7.40;87.20;;;;;;4916173;29;20183;-71
2022/03/13 07:45:11;;;;;;;14.17;12.47;;;7.60;87.30;;;;;;4916021;29;20186;-71
2022/03/13 07:47:37;;;;;;;13.63;12.23;;;7.80;84.70;;;;;;4917214;29;20220;-72
2022/03/13 07:50:04;;;;;;;13.10;11.80;;;7.80;84.20;;;;;;4918071;29;20191;-71
2022/03/13 07:52:29;;;;;;;14.20;12.53;;;8.00;82.50;;;;;;4917302;29;20564;-70
2022/03/13 07:54:55;;;;;;;14.87;12.93;;;8.10;82.30;;;;;;4916934;29;20214;-69
2022/03/13 07:57:21;;;;;;;17.27;13.53;;;8.00;80.10;;;;;;4918832;29;20203;-71
2022/03/13 07:59:49;;;;;;;12.57;11.37;;;8.20;79.70;;;;;;4934648;29;20193;-70
2022/03/13 08:02:15;;;;;;;15.77;13.60;;;8.60;78.60;;;;;;4935874;29;20182;-71
2022/03/13 08:04:41;;;;;;;13.80;12.30;;;8.60;77.00;;;;;;4916603;29;20205;-70
2022/03/13 08:07:07;;;;;;;13.33;11.77;;;8.60;76.10;;;;;;4916576;29;20222;-70
2022/03/13 08:09:34;;;;;;;12.47;11.20;;;8.90;76.50;;;;;;4933241;29;20197;-70
2022/03/13 08:12:01;;;;;;;11.67;10.57;;;9.20;74.60;;;;;;4935597;29;20197;-69
2022/03/13 08:14:27;;;;;;;12.67;10.43;;;9.50;73.20;;;;;;4936113;29;20205;-69
2022/03/13 08:16:53;;;;;;;14.27;11.10;;;9.50;71.40;;;;;;4937702;29;20577;-70
2022/03/13 08:19:19;;;;;;;13.17;11.40;;;9.70;70.80;;;;;;4940246;29;20190;-70
2022/03/13 08:21:45;;;;;;;12.00;10.63;;;10.10;69.80;;;;;;4935983;29;20186;-70
2022/03/13 08:24:13;;;;;;;13.03;10.67;;;10.40;69.30;;;;;;4935560;29;20249;-70
2022/03/13 08:26:40;;;;;;;12.93;11.43;;;10.60;66.90;;;;;;4935321;29;20590;-70
2022/03/13 08:29:07;;;;;;;15.73;12.53;;;10.80;67.30;;;;;;4933994;29;20194;-70
2022/03/13 08:31:33;;;;;;;14.87;11.97;;;11.40;64.40;;;;;;4935501;29;20198;-70
2022/03/13 08:34:01;;;;;;;11.47;10.37;;;11.50;63.40;;;;;;4933051;29;20222;-70
2022/03/13 08:36:27;;;;;;;13.37;11.80;;;11.70;60.80;;;;;;4940106;28;20209;-71
2022/03/13 08:38:53;;;;;;;13.60;11.97;;;12.00;60.60;;;;;;4934191;29;20190;-71
2022/03/13 08:41:19;;;;;;;12.47;11.17;;;12.40;58.70;;;;;;4935651;29;20178;-71
2022/03/13 08:43:45;;;;;;;11.73;10.57;;;12.50;57.50;;;;;;4934463;29;20189;-75
2022/03/13 08:46:12;;;;;;;11.87;10.33;;;12.50;56.60;;;;;;4935452;29;20577;-74
2022/03/13 08:48:39;;;;;;;13.33;10.43;;;12.50;54.60;;;;;;4933418;29;20182;-74
2022/03/13 08:51:05;;;;;;;12.57;10.13;;;12.50;55.40;;;;;;4936277;29;20230;-79
2022/03/13 08:53:31;;;;;;;15.60;11.10;;;12.10;54.80;;;;;;4936584;29;20218;-79
2022/03/13 08:55:57;;;;;;;11.63;10.43;;;11.90;56.00;;;;;;4935869;29;20202;-77
2022/03/13 08:58:24;;;;;;;13.23;11.17;;;11.90;55.20;;;;;;4935546;29;20189;-74
2022/03/13 09:00:51;;;;;;;10.77;9.77;;;12.10;55.60;;;;;;4934727;29;20190;-76
2022/03/13 09:03:18;;;;;;;13.17;11.00;;;12.30;55.60;;;;;;4933627;29;20296;-70
2022/03/13 09:05:45;;;;;;;12.07;10.77;;;12.20;55.60;;;;;;4927824;29;20195;-70
2022/03/13 09:08:10;;;;;;;12.07;10.33;;;12.30;55.90;;;;;;4921603;29;20178;-70
2022/03/13 09:10:36;;;;;;;12.70;11.40;;;12.60;55.60;;;;;;4926444;29;20269;-70
2022/03/13 09:13:02;;;;;;;11.97;10.63;;;12.70;54.60;;;;;;4914848;29;20191;-70
2022/03/13 09:15:28;;;;;;;10.83;9.77;;;12.90;54.20;;;;;;4915965;29;20194;-70
2022/03/13 09:17:54;;;;;;;12.10;10.83;;;13.30;54.00;;;;;;4926102;29;20225;-70
2022/03/13 09:20:21;;;;;;;11.90;10.67;;;13.60;52.40;;;;;;4934843;29;20187;-70
2022/03/13 09:22:48;;;;;;;19.70;12.07;;;14.00;53.20;;;;;;4933995;29;20653;-70
2022/03/13 09:25:14;;;;;;;14.53;12.90;;;14.40;51.60;;;;;;4935737;29;20646;-68
2022/03/13 09:27:40;;;;;;;15.73;11.87;;;14.70;51.90;;;;;;4920253;29;20218;-69
2022/03/13 09:30:07;;;;;;;14.33;11.93;;;15.30;49.20;;;;;;4916310;29;20659;-70
2022/03/13 09:32:34;;;;;;;11.80;10.60;;;15.30;48.60;;;;;;4916399;29;20218;-71
2022/03/13 09:34:59;;;;;;;12.43;11.20;;;15.40;48.00;;;;;;4917585;29;20265;-70
2022/03/13 09:37:25;;;;;;;12.93;11.47;;;15.60;48.60;;;;;;4922196;29;20202;-69
2022/03/13 09:39:51;;;;;;;13.07;10.77;;;16.10;48.70;;;;;;4934749;29;20186;-69
2022/03/13 09:42:17;;;;;;;16.97;10.80;;;16.40;46.30;;;;;;4934243;29;20673;-69
2022/03/13 09:44:43;;;;;;;14.70;10.90;;;16.50;46.30;;;;;;4934863;29;20201;-69
2022/03/13 09:47:11;;;;;;;13.60;11.33;;;16.70;45.60;;;;;;4933616;29;20202;-69
2022/03/13 09:49:37;;;;;;;15.03;13.53;;;17.30;45.90;;;;;;4934293;29;20654;-69
2022/03/13 09:52:04;;;;;;;13.90;12.57;;;17.80;43.30;;;;;;4934231;29;20186;-69
2022/03/13 09:54:30;;;;;;;17.37;15.87;;;18.00;43.30;;;;;;4934308;29;20306;-69
2022/03/13 09:56:55;;;;;;;19.40;17.73;;;18.20;41.00;;;;;;4933571;29;20285;-69
2022/03/13 09:59:21;;;;;;;18.47;16.70;;;18.00;41.90;;;;;;4933947;29;20679;-69
2022/03/13 10:01:47;;;;;;;17.00;14.87;;;18.00;43.80;;;;;;4933835;29;20179;-71
2022/03/13 10:04:14;;;;;;;14.43;13.00;;;18.10;43.90;;;;;;4933847;29;20187;-69
2022/03/13 10:07:12;;;;;;;17.40;15.80;;;18.10;45.30;;;;;;4933476;29;20230;-69
2022/03/13 10:09:43;;;;;;;21.93;19.93;;;18.70;44.30;;;;;;4913734;29;20194;-69
2022/03/13 10:12:10;;;;;;;24.87;22.87;;;19.40;42.40;;;;;;4913638;29;20187;-69
2022/03/13 10:14:39;;;;;;;25.93;23.77;;;19.20;40.80;;;;;;4915318;29;20647;-69
2022/03/13 10:17:14;;;;;;;23.80;21.80;;;19.00;40.60;;;;;;4940515;23;20317;-67
2022/03/13 10:19:40;;;;;;;19.73;17.93;;;19.20;41.70;;;;;;4933141;29;20644;-67
2022/03/13 10:22:08;;;;;;;17.30;15.60;;;19.70;39.50;;;;;;4932483;29;20226;-69
2022/03/13 10:24:49;;;;;;;16.07;13.43;;;19.80;39.10;;;;;;4933904;29;20273;-69
2022/03/13 10:27:20;;;;;;;17.40;15.27;;;19.70;38.80;;;;;;4924907;29;20210;-67
2022/03/13 10:29:47;;;;;;;18.03;13.07;;;19.50;38.30;;;;;;4913833;29;20193;-68
2022/03/13 10:32:14;;;;;;;21.67;19.53;;;19.90;38.60;;;;;;4914708;29;20195;-67
2022/03/13 10:34:53;;;;;;;19.80;17.70;;;19.60;46.20;;;;;;4898512;29;20716;-67
2022/03/13 10:37:37;;;;;;;18.33;15.40;;;19.80;39.60;;;;;;4900297;29;20198;-69
2022/03/13 10:40:08;;;;;;;18.75;16.35;;;20.10;38.40;;;;;;4914834;29;20190;-70
2022/03/13 10:42:43;;;;;;;22.30;17.27;;;20.30;38.60;;;;;;4914739;29;20734;-68
2022/03/13 10:45:11;;;;;;;18.40;15.63;;;20.50;42.60;;;;;;4914213;29;20218;-68
2022/03/13 10:47:38;;;;;;;19.80;15.85;;;20.00;39.60;;;;;;4910474;29;20209;-71
2022/03/13 10:50:04;;;;;;;21.90;15.30;;;19.30;41.30;;;;;;4903008;29;20818;-71
2022/03/13 10:52:34;;;;;;;21.10;15.55;;;18.90;40.80;;;;;;4894030;29;20203;-71
2022/03/13 10:55:26;;;;;;;18.13;14.27;;;19.10;40.70;;;;;;4894107;29;20191;-71
2022/03/13 10:57:53;;;;;;;23.80;21.60;;;18.30;41.30;;;;;;4900718;29;20218;-71
2022/03/13 11:00:21;;;;;;;19.00;15.40;;;18.80;46.30;;;;;;4914363;29;20605;-70
2022/03/13 11:02:48;;;;;;;18.20;15.18;;;20.10;40.70;;;;;;4914713;29;20191;-71
2022/03/13 11:05:14;;;;;;;19.73;17.03;;;21.00;38.30;;;;;;4913291;29;20844;-71
2022/03/13 11:07:40;;;;;;;18.98;15.50;;;20.90;41.50;;;;;;4913902;29;20258;-71
2022/03/13 11:10:07;;;;;;;20.10;14.98;;;21.10;39.90;;;;;;4913083;29;20191;-70
2022/03/13 11:12:34;;;;;;;21.77;15.45;;;21.90;36.80;;;;;;4914254;29;20211;-71
2022/03/13 11:15:01;;;;;;;20.65;17.05;;;22.10;35.40;;;;;;4913437;29;20270;-71
2022/03/13 11:17:30;;;;;;;20.30;15.68;;;22.30;36.40;;;;;;4912655;29;20215;-71
2022/03/13 11:19:58;;;;;;;18.67;16.23;;;23.10;34.70;;;;;;4914558;29;20191;-72
2022/03/13 11:22:25;;;;;;;23.40;16.80;;;23.00;36.10;;;;;;4913385;29;20203;-72
2022/03/13 11:24:54;;;;;;;21.13;16.33;;;23.20;34.80;;;;;;4914307;29;20246;-72
2022/03/13 11:27:21;;;;;;;21.40;17.80;;;23.80;32.70;;;;;;4913722;29;20210;-72
2022/03/13 11:29:52;;;;;;;29.80;18.60;;;23.50;33.90;;;;;;4913236;29;20194;-72
2022/03/13 11:32:37;;;;;;;26.13;18.38;;;23.60;33.80;;;;;;4913462;29;20183;-72
2022/03/13 11:35:12;;;;;;;27.73;19.65;;;23.30;33.70;;;;;;4914370;29;20195;-72
2022/03/13 11:37:38;;;;;;;24.90;18.63;;;23.20;34.80;;;;;;4913716;29;20221;-72
2022/03/13 11:40:07;;;;;;;22.35;17.52;;;23.30;34.60;;;;;;4914373;29;20186;-72
2022/03/13 11:42:51;;;;;;;25.40;18.23;;;23.60;34.00;;;;;;4913422;29;20202;-72
2022/03/13 11:45:28;;;;;;;26.33;17.75;;;24.10;32.60;;;;;;4925880;29;20221;-72
2022/03/13 11:48:19;;;;;;;25.88;19.63;;;24.20;33.50;;;;;;4916008;29;20233;-72
2022/03/13 11:50:59;;;;;;;28.42;21.17;;;24.60;33.50;;;;;;4917635;29;20183;-73
2022/03/13 11:53:29;;;;;;;23.17;17.63;;;24.10;34.50;;;;;;4917833;29;20191;-72
2022/03/13 11:56:02;;;;;;;21.73;17.92;;;24.80;32.70;;;;;;4917361;29;20190;-72
2022/03/13 11:58:41;;;;;;;21.38;18.63;;;25.40;30.60;;;;;;4916866;29;20595;-73
2022/03/13 12:01:15;;;;;;;25.20;19.05;;;25.30;30.30;;;;;;4917556;29;20242;-72
2022/03/13 12:04:09;;;;;;;22.83;19.13;;;25.20;30.30;;;;;;4917382;29;20732;-72
2022/03/13 12:06:56;;;;;;;20.52;16.60;;;24.70;32.70;;;;;;4917181;29;20214;-72
2022/03/13 12:09:41;;;;;;;22.48;18.15;;;25.80;30.80;;;;;;4915696;29;20206;-72
2022/03/13 12:12:08;;;;;;;23.25;17.70;;;25.90;29.70;;;;;;4917085;29;20187;-74
2022/03/13 12:14:54;;;;;;;22.98;18.08;;;25.60;30.00;;;;;;4916189;29;20233;-73
2022/03/13 12:17:25;;;;;;;25.17;19.52;;;26.10;29.60;;;;;;4915090;29;20240;-70
2022/03/13 12:19:53;;;;;;;24.88;19.45;;;26.00;29.30;;;;;;4917058;29;20214;-70
2022/03/13 12:22:24;;;;;;;24.85;19.50;;;26.10;29.50;;;;;;4916904;29;20191;-71
2022/03/13 12:24:56;;;;;;;21.80;18.05;;;25.70;29.50;;;;;;4917153;29;20215;-72
2022/03/13 12:27:23;;;;;;;22.00;18.90;;;25.80;32.40;;;;;;4916147;29;20199;-72
2022/03/13 12:29:55;;;;;;;22.65;19.23;;;25.80;29.80;;;;;;4916849;29;20647;-72
2022/03/13 12:32:21;;;;;;;23.27;20.35;;;25.80;29.90;;;;;;4915516;29;20199;-72
2022/03/13 12:34:47;;;;;;;24.85;20.42;;;25.70;29.60;;;;;;4915546;29;20198;-72
2022/03/13 12:37:13;;;;;;;28.20;24.67;;;26.10;30.30;;;;;;4915980;29;20317;-71
2022/03/13 12:39:53;;;;;;;27.42;24.52;;;27.20;29.00;;;;;;4916529;29;20190;-72
2022/03/13 12:42:24;;;;;;;27.27;23.00;;;27.10;28.80;;;;;;4916449;29;20187;-71
2022/03/13 12:45:04;;;;;;;28.13;24.15;;;27.30;28.30;;;;;;4916512;29;20214;-72
2022/03/13 12:47:33;;;;;;;26.70;23.55;;;27.10;28.30;;;;;;4915850;29;20199;-72
2022/03/13 12:49:59;;;;;;;27.88;23.33;;;26.60;28.70;;;;;;4915682;29;20185;-71
2022/03/13 12:52:26;;;;;;;24.23;18.40;;;26.90;28.40;;;;;;4916601;29;20235;-71
2022/03/13 12:54:57;;;;;;;22.63;19.55;;;27.70;27.70;;;;;;4915959;29;20258;-71
2022/03/13 12:57:23;;;;;;;20.77;18.52;;;27.40;28.00;;;;;;4914311;29;20238;-71
2022/03/13 12:59:49;;;;;;;23.20;19.13;;;27.20;28.10;;;;;;4913138;29;20182;-71
2022/03/13 13:02:18;;;;;;;24.08;18.75;;;27.60;28.10;;;;;;4900984;29;20227;-72
2022/03/13 13:04:56;;;;;;;24.05;20.55;;;28.00;27.50;;;;;;4908200;29;20213;-72
2022/03/13 13:07:25;;;;;;;30.40;21.15;;;27.40;27.90;;;;;;4915347;29;20298;-71
2022/03/13 13:09:51;;;;;;;22.23;19.15;;;27.00;28.60;;;;;;4911772;29;20184;-73
2022/03/13 13:12:21;;;;;;;21.90;19.50;;;27.10;28.10;;;;;;4900221;29;20262;-73
2022/03/13 13:14:49;;;;;;;25.85;20.33;;;27.30;28.30;;;;;;4906234;29;20812;-73
2022/03/13 13:17:17;;;;;;;24.02;20.52;;;27.60;28.60;;;;;;4915159;29;20219;-73
2022/03/13 13:19:45;;;;;;;24.80;19.40;;;27.40;28.50;;;;;;4914246;29;20242;-73
2022/03/13 13:22:12;;;;;;;23.02;17.88;;;27.80;28.20;;;;;;4914336;29;20210;-73
2022/03/13 13:24:50;;;;;;;23.38;19.83;;;28.60;27.40;;;;;;4914066;29;20207;-73
2022/03/13 13:27:29;;;;;;;25.67;21.48;;;26.10;28.70;;;;;;4914250;29;20230;-73
2022/03/13 13:29:56;;;;;;;27.90;23.40;;;24.70;30.80;;;;;;4931847;29;20194;-73
2022/03/13 13:32:32;;;;;;;27.33;23.67;;;23.90;31.20;;;;;;4920711;29;20183;-74
2022/03/13 13:35:15;;;;;;;25.15;20.80;;;24.10;32.10;;;;;;4915983;29;20231;-73
2022/03/13 13:38:00;;;;;;;22.42;19.73;;;25.80;29.80;;;;;;4914151;29;20254;-73
2022/03/13 13:40:41;;;;;;;23.50;20.95;;;26.70;28.60;;;;;;4904335;29;20191;-74
2022/03/13 13:43:13;;;;;;;26.55;19.33;;;27.40;28.40;;;;;;4901367;29;20246;-74
2022/03/13 13:45:39;;;;;;;23.73;17.63;;;28.00;27.50;;;;;;4912523;29;20231;-72
2022/03/13 13:48:19;;;;;;;25.75;18.55;;;28.10;27.00;;;;;;4915309;29;20206;-74
2022/03/13 13:50:47;;;;;;;25.80;19.52;;;27.40;27.90;;;;;;4915510;29;20254;-73
2022/03/13 13:53:14;;;;;;;22.55;18.23;;;27.50;28.10;;;;;;4915174;29;20179;-73
2022/03/13 13:55:41;;;;;;;23.83;18.73;;;28.50;26.70;;;;;;4916443;29;20602;-73
2022/03/13 13:58:25;;;;;;;20.98;17.25;;;28.00;27.00;;;;;;4914638;29;20195;-73
2022/03/13 14:00:51;;;;;;;22.98;18.17;;;27.70;27.00;;;;;;4913800;29;20618;-73
2022/03/13 14:03:16;;;;;;;22.17;18.58;;;26.80;27.70;;;;;;4896064;29;20473;-73
2022/03/13 14:05:43;;;;;;;24.95;19.27;;;26.10;28.30;;;;;;4913643;29;20194;-73
2022/03/13 14:08:09;;;;;;;24.27;19.05;;;26.40;27.80;;;;;;4913366;29;20203;-73
2022/03/13 14:10:36;;;;;;;23.25;19.45;;;24.90;29.00;;;;;;4914788;29;20187;-73
2022/03/13 14:13:01;;;;;;;23.30;19.38;;;24.50;30.70;;;;;;4913615;29;20179;-73
2022/03/13 14:15:28;;;;;;;23.92;20.60;;;24.60;30.30;;;;;;4914627;29;20191;-74
2022/03/13 14:17:55;;;;;;;21.73;19.02;;;24.10;30.50;;;;;;4895470;29;20349;-73
2022/03/13 14:20:22;;;;;;;23.35;19.95;;;23.60;31.90;;;;;;4895138;29;20199;-74
2022/03/13 14:22:48;;;;;;;24.00;18.70;;;23.80;31.50;;;;;;4894798;29;20195;-74
2022/03/13 14:25:14;;;;;;;27.13;19.63;;;23.80;30.60;;;;;;4908445;29;20211;-77
2022/03/13 14:27:41;;;;;;;20.48;16.75;;;23.10;31.30;;;;;;4914650;29;20202;-74
2022/03/13 14:30:07;;;;;;;20.52;17.15;;;22.60;31.70;;;;;;4914963;29;20183;-74
2022/03/13 14:32:33;;;;;;;21.45;16.88;;;22.50;31.70;;;;;;4914175;29;20171;-74
2022/03/13 14:34:59;;;;;;;25.00;18.67;;;22.80;32.10;;;;;;4914627;29;20190;-73
2022/03/13 14:37:25;;;;;;;22.77;17.15;;;23.20;32.20;;;;;;4913611;29;20557;-75
2022/03/13 14:39:51;;;;;;;21.38;15.45;;;23.20;31.20;;;;;;4914402;29;20191;-74
2022/03/13 14:42:20;;;;;;;20.58;16.58;;;22.80;31.90;;;;;;4914328;29;20187;-73
2022/03/13 14:44:46;;;;;;;19.95;15.25;;;22.80;31.50;;;;;;4914414;29;20211;-74
2022/03/13 14:47:12;;;;;;;23.30;16.73;;;22.60;32.10;;;;;;4914167;29;20203;-74
2022/03/13 14:49:39;;;;;;;23.23;16.80;;;22.60;32.50;;;;;;4914359;29;20195;-74
2022/03/13 14:52:05;;;;;;;22.52;15.65;;;23.20;31.50;;;;;;4912973;29;20183;-73
2022/03/13 14:54:31;;;;;;;21.00;16.20;;;23.90;30.30;;;;;;4914449;29;20274;-73
2022/03/13 14:56:57;;;;;;;21.40;14.70;;;24.50;30.10;;;;;;4914169;29;20339;-68
2022/03/13 14:59:23;;;;;;;19.67;16.15;;;25.10;29.10;;;;;;4914536;29;20231;-69
2022/03/13 15:01:49;;;;;;;21.30;16.85;;;25.30;29.00;;;;;;4914560;29;20663;-69
2022/03/13 15:04:15;;;;;;;24.48;18.85;;;25.00;29.00;;;;;;4914365;29;20202;-68
2022/03/13 15:06:41;;;;;;;19.63;16.90;;;24.90;28.40;;;;;;4914489;29;20286;-68
2022/03/13 15:09:07;;;;;;;16.85;15.05;;;24.00;29.20;;;;;;4914147;29;20222;-68
2022/03/13 15:11:35;;;;;;;19.38;16.48;;;23.70;30.40;;;;;;4914253;29;20221;-69
2022/03/13 15:14:02;;;;;;;19.25;16.75;;;23.70;29.50;;;;;;4919356;29;20187;-71
2022/03/13 15:16:28;;;;;;;20.77;16.50;;;22.80;30.60;;;;;;4916924;29;20550;-69
2022/03/13 15:18:54;;;;;;;19.95;16.27;;;22.00;32.00;;;;;;4914396;29;20191;-69
2022/03/13 15:21:19;;;;;;;25.25;16.27;;;21.30;32.50;;;;;;4914063;29;20242;-69
2022/03/13 15:23:45;;;;;;;19.85;14.95;;;20.60;33.90;;;;;;4917773;29;20211;-69
2022/03/13 15:26:11;;;;;;;18.52;14.82;;;20.10;34.90;;;;;;4918325;29;20240;-71
2022/03/13 15:28:37;;;;;;;20.85;15.40;;;19.60;35.10;;;;;;4917961;29;20231;-71
2022/03/13 15:31:04;;;;;;;21.90;14.63;;;19.10;36.10;;;;;;4914960;29;20199;-83
2022/03/13 15:33:30;;;;;;;20.83;15.03;;;18.70;37.00;;;;;;4926660;29;20558;-86
2022/03/13 15:35:56;;;;;;;20.77;14.53;;;18.40;37.10;;;;;;4918397;29;20227;-78
2022/03/13 15:38:23;;;;;;;20.23;16.33;;;18.30;37.20;;;;;;4920080;29;20707;-78
2022/03/13 15:40:50;;;;;;;20.57;15.77;;;18.50;37.60;;;;;;4918628;29;20282;-78
2022/03/13 15:43:16;;;;;;;17.70;13.97;;;18.70;37.10;;;;;;4916305;29;20191;-79
2022/03/13 15:45:42;;;;;;;22.13;14.70;;;19.10;36.40;;;;;;4920755;29;20183;-79
2022/03/13 15:48:09;;;;;;;19.40;14.43;;;19.10;36.50;;;;;;4933486;29;20202;-81
2022/03/13 15:50:36;;;;;;;19.40;13.93;;;19.00;36.10;;;;;;4933100;29;20184;-79
2022/03/13 15:53:03;;;;;;;23.70;15.07;;;18.70;37.10;;;;;;4924224;29;20187;-79
2022/03/13 15:55:30;;;;;;;19.70;15.00;;;18.30;37.10;;;;;;4923055;29;20219;-80
2022/03/13 15:57:57;;;;;;;19.77;14.80;;;18.20;37.40;;;;;;4924417;29;20206;-80
2022/03/13 16:00:24;;;;;;;24.60;17.50;;;18.20;37.50;;;;;;4921013;29;20207;-80
2022/03/13 16:02:50;;;;;;;16.73;14.80;;;18.20;37.40;;;;;;4919883;29;20191;-80
2022/03/13 16:05:17;;;;;;;18.30;15.67;;;18.30;37.00;;;;;;4920900;29;20278;-79
2022/03/13 16:07:44;;;;;;;21.00;15.10;;;18.70;36.90;;;;;;4934900;29;20207;-79
2022/03/13 16:10:10;;;;;;;18.10;15.20;;;19.20;36.10;;;;;;4919940;29;20183;-79
2022/03/13 16:12:37;;;;;;;18.30;15.13;;;19.50;35.70;;;;;;4920301;29;20210;-79
2022/03/13 16:15:08;;;;;;;22.37;15.27;;;19.50;35.40;;;;;;4919794;29;20182;-79
2022/03/13 16:17:36;;;;;;;17.57;14.27;;;19.20;36.00;;;;;;4959000;23;20688;-75
2022/03/13 16:20:05;;;;;;;18.77;14.90;;;19.10;36.60;;;;;;4974555;28;20195;-75
2022/03/13 16:22:33;;;;;;;20.33;15.93;;;18.90;36.60;;;;;;4974022;28;20268;-75
2022/03/13 16:24:59;;;;;;;20.77;14.80;;;18.90;36.60;;;;;;4972868;28;20220;-75
2022/03/13 16:27:24;;;;;;;17.77;14.03;;;18.90;36.40;;;;;;4966441;28;20205;-75
2022/03/13 16:29:51;;;;;;;16.23;13.63;;;18.70;36.50;;;;;;4955153;29;20532;-75
2022/03/13 16:32:18;;;;;;;17.50;14.97;;;18.30;36.90;;;;;;4950680;28;20673;-75
2022/03/13 16:34:47;;;;;;;19.33;16.27;;;17.80;37.60;;;;;;4936090;29;20189;-75